sensor_id;sensor_type;location;lat;lon;timestamp;temperature;humidity
28837;DHT22;50669;50.982;11.022;2023-08-12T00:02:22;22.60;78.20
28837;DHT22;50669;50.982;11.022;2023-08-12T00:04:47;22.70;78.20
28837;DHT22;50669;50.982;11.022;2023-08-12T00:07:13;22.70;78.20
28837;DHT22;50669;50.982;11.022;2023-08-12T00:09:39;22.70;78.20
28837;DHT22;50669;50.982;11.022;2023-08-12T00:12:04;22.70;78.20
28837;DHT22;50669;50.982;11.022;2023-08-12T00:14:30;22.60;78.10
28837;DHT22;50669;50.982;11.022;2023-08-12T00:16:56;22.60;78.10
28837;DHT22;50669;50.982;11.022;2023-08-12T00:19:26;22.70;78.20
28837;DHT22;50669;50.982;11.022;2023-08-12T00:21:54;22.60;78.10
28837;DHT22;50669;50.982;11.022;2023-08-12T00:24:22;22.70;78.20
28837;DHT22;50669;50.982;11.022;2023-08-12T00:26:52;22.70;78.20
28837;DHT22;50669;50.982;11.022;2023-08-12T00:29:21;22.70;78.20
28837;DHT22;50669;50.982;11.022;2023-08-12T00:31:46;22.60;78.10
28837;DHT22;50669;50.982;11.022;2023-08-12T00:34:12;22.60;78.10
28837;DHT22;50669;50.982;11.022;2023-08-12T00:36:38;22.60;78.10
28837;DHT22;50669;50.982;11.022;2023-08-12T00:39:03;22.60;78.10
28837;DHT22;50669;50.982;11.022;2023-08-12T00:41:29;22.60;78.10
28837;DHT22;50669;50.982;11.022;2023-08-12T00:43:56;22.70;78.20
28837;DHT22;50669;50.982;11.022;2023-08-12T00:46:21;22.60;78.10
28837;DHT22;50669;50.982;11.022;2023-08-12T00:48:48;22.60;78.10
28837;DHT22;50669;50.982;11.022;2023-08-12T00:51:16;22.60;78.10
28837;DHT22;50669;50.982;11.022;2023-08-12T00:53:44;22.70;78.20
28837;DHT22;50669;50.982;11.022;2023-08-12T00:56:11;22.70;78.20
28837;DHT22;50669;50.982;11.022;2023-08-12T00:58:38;22.60;78.10
28837;DHT22;50669;50.982;11.022;2023-08-12T01:01:07;22.60;78.10
28837;DHT22;50669;50.982;11.022;2023-08-12T01:03:33;22.60;78.10
28837;DHT22;50669;50.982;11.022;2023-08-12T01:05:59;22.60;78.00
28837;DHT22;50669;50.982;11.022;2023-08-12T01:08:30;22.60;78.10
28837;DHT22;50669;50.982;11.022;2023-08-12T01:11:06;22.60;78.20
28837;DHT22;50669;50.982;11.022;2023-08-12T01:13:51;22.60;78.10
28837;DHT22;50669;50.982;11.022;2023-08-12T01:16:21;22.60;78.10
28837;DHT22;50669;50.982;11.022;2023-08-12T01:18:48;22.60;78.10
28837;DHT22;50669;50.982;11.022;2023-08-12T01:21:18;22.60;78.10
28837;DHT22;50669;50.982;11.022;2023-08-12T01:23:46;22.60;78.20
28837;DHT22;50669;50.982;11.022;2023-08-12T01:26:12;22.60;78.20
28837;DHT22;50669;50.982;11.022;2023-08-12T01:28:40;22.60;78.20
28837;DHT22;50669;50.982;11.022;2023-08-12T01:31:18;22.60;78.10
28837;DHT22;50669;50.982;11.022;2023-08-12T01:34:18;22.60;78.10
28837;DHT22;50669;50.982;11.022;2023-08-12T01:36:50;22.60;78.20
28837;DHT22;50669;50.982;11.022;2023-08-12T01:39:19;22.60;78.20
28837;DHT22;50669;50.982;11.022;2023-08-12T01:41:45;22.60;78.00
28837;DHT22;50669;50.982;11.022;2023-08-12T01:44:13;22.60;78.10
28837;DHT22;50669;50.982;11.022;2023-08-12T01:46:39;22.60;78.20
28837;DHT22;50669;50.982;11.022;2023-08-12T01:49:04;22.60;78.10
28837;DHT22;50669;50.982;11.022;2023-08-12T01:51:30;22.60;78.20
28837;DHT22;50669;50.982;11.022;2023-08-12T01:53:56;22.60;78.20
28837;DHT22;50669;50.982;11.022;2023-08-12T01:56:21;22.60;78.20
28837;DHT22;50669;50.982;11.022;2023-08-12T01:58:47;22.60;78.10
28837;DHT22;50669;50.982;11.022;2023-08-12T02:01:15;22.60;78.20
28837;DHT22;50669;50.982;11.022;2023-08-12T02:03:40;22.60;78.20
28837;DHT22;50669;50.982;11.022;2023-08-12T02:06:08;22.60;78.20
28837;DHT22;50669;50.982;11.022;2023-08-12T02:08:36;22.60;78.20
28837;DHT22;50669;50.982;11.022;2023-08-12T02:11:04;22.60;78.20
28837;DHT22;50669;50.982;11.022;2023-08-12T02:13:32;22.60;78.20
28837;DHT22;50669;50.982;11.022;2023-08-12T02:16:00;22.60;78.20
28837;DHT22;50669;50.982;11.022;2023-08-12T02:18:26;22.60;79.00
28837;DHT22;50669;50.982;11.022;2023-08-12T02:20:51;22.60;78.20
28837;DHT22;50669;50.982;11.022;2023-08-12T02:23:17;22.60;78.20
28837;DHT22;50669;50.982;11.022;2023-08-12T02:25:43;22.60;78.20
28837;DHT22;50669;50.982;11.022;2023-08-12T02:28:08;22.60;78.30
28837;DHT22;50669;50.982;11.022;2023-08-12T02:30:34;22.60;78.20
28837;DHT22;50669;50.982;11.022;2023-08-12T02:33:00;22.60;78.30
28837;DHT22;50669;50.982;11.022;2023-08-12T02:35:25;22.60;78.30
28837;DHT22;50669;50.982;11.022;2023-08-12T02:37:53;22.60;78.30
28837;DHT22;50669;50.982;11.022;2023-08-12T02:40:19;22.60;78.20
28837;DHT22;50669;50.982;11.022;2023-08-12T02:42:44;22.60;78.20
28837;DHT22;50669;50.982;11.022;2023-08-12T02:45:10;22.60;78.20
28837;DHT22;50669;50.982;11.022;2023-08-12T02:47:36;22.60;78.30
28837;DHT22;50669;50.982;11.022;2023-08-12T02:50:01;22.60;78.30
28837;DHT22;50669;50.982;11.022;2023-08-12T02:52:28;22.60;78.30
28837;DHT22;50669;50.982;11.022;2023-08-12T02:54:53;22.60;78.30
28837;DHT22;50669;50.982;11.022;2023-08-12T02:57:21;22.60;78.30
28837;DHT22;50669;50.982;11.022;2023-08-12T02:59:47;22.60;78.30
28837;DHT22;50669;50.982;11.022;2023-08-12T03:02:13;22.60;78.30
28837;DHT22;50669;50.982;11.022;2023-08-12T03:04:38;22.60;78.30
28837;DHT22;50669;50.982;11.022;2023-08-12T03:07:04;22.60;78.30
28837;DHT22;50669;50.982;11.022;2023-08-12T03:09:32;22.60;78.30
28837;DHT22;50669;50.982;11.022;2023-08-12T03:11:57;22.60;78.30
28837;DHT22;50669;50.982;11.022;2023-08-12T03:14:28;22.60;78.30
28837;DHT22;50669;50.982;11.022;2023-08-12T03:16:56;22.60;78.30
28837;DHT22;50669;50.982;11.022;2023-08-12T03:19:23;22.60;78.30
28837;DHT22;50669;50.982;11.022;2023-08-12T03:21:52;22.60;78.30
28837;DHT22;50669;50.982;11.022;2023-08-12T03:24:17;22.60;78.30
28837;DHT22;50669;50.982;11.022;2023-08-12T03:26:44;22.60;78.40
28837;DHT22;50669;50.982;11.022;2023-08-12T03:29:13;22.60;78.40
28837;DHT22;50669;50.982;11.022;2023-08-12T03:31:45;22.60;78.40
28837;DHT22;50669;50.982;11.022;2023-08-12T03:34:10;22.60;78.30
28837;DHT22;50669;50.982;11.022;2023-08-12T03:36:38;22.50;78.30
28837;DHT22;50669;50.982;11.022;2023-08-12T03:39:06;22.60;78.40
28837;DHT22;50669;50.982;11.022;2023-08-12T03:41:32;22.60;78.40
28837;DHT22;50669;50.982;11.022;2023-08-12T03:44:01;22.60;78.30
28837;DHT22;50669;50.982;11.022;2023-08-12T03:46:26;22.60;78.40
28837;DHT22;50669;50.982;11.022;2023-08-12T03:48:52;22.50;78.30
28837;DHT22;50669;50.982;11.022;2023-08-12T03:51:17;22.50;78.40
28837;DHT22;50669;50.982;11.022;2023-08-12T03:53:43;22.50;78.30
28837;DHT22;50669;50.982;11.022;2023-08-12T03:56:09;22.60;78.40
28837;DHT22;50669;50.982;11.022;2023-08-12T03:58:34;22.50;78.40
28837;DHT22;50669;50.982;11.022;2023-08-12T04:01:00;22.50;78.40
28837;DHT22;50669;50.982;11.022;2023-08-12T04:03:28;22.60;78.40
28837;DHT22;50669;50.982;11.022;2023-08-12T04:05:56;22.50;78.40
28837;DHT22;50669;50.982;11.022;2023-08-12T04:08:24;22.50;78.40
28837;DHT22;50669;50.982;11.022;2023-08-12T04:10:54;22.50;78.40
28837;DHT22;50669;50.982;11.022;2023-08-12T04:13:20;22.60;78.50
28837;DHT22;50669;50.982;11.022;2023-08-12T04:15:50;22.50;78.40
28837;DHT22;50669;50.982;11.022;2023-08-12T04:18:18;22.50;78.40
28837;DHT22;50669;50.982;11.022;2023-08-12T04:20:45;22.60;78.50
28837;DHT22;50669;50.982;11.022;2023-08-12T04:23:12;22.50;78.40
28837;DHT22;50669;50.982;11.022;2023-08-12T04:25:38;22.50;78.40
28837;DHT22;50669;50.982;11.022;2023-08-12T04:28:04;22.50;78.40
28837;DHT22;50669;50.982;11.022;2023-08-12T04:30:30;22.60;78.50
28837;DHT22;50669;50.982;11.022;2023-08-12T04:32:55;22.50;78.40
28837;DHT22;50669;50.982;11.022;2023-08-12T04:35:23;22.50;78.40
28837;DHT22;50669;50.982;11.022;2023-08-12T04:37:51;22.50;78.40
28837;DHT22;50669;50.982;11.022;2023-08-12T04:40:19;22.50;78.40
28837;DHT22;50669;50.982;11.022;2023-08-12T04:42:48;22.50;78.50
28837;DHT22;50669;50.982;11.022;2023-08-12T04:45:14;22.50;78.40
28837;DHT22;50669;50.982;11.022;2023-08-12T04:47:39;22.50;78.50
28837;DHT22;50669;50.982;11.022;2023-08-12T04:50:05;22.50;78.50
28837;DHT22;50669;50.982;11.022;2023-08-12T04:52:32;22.50;78.50
28837;DHT22;50669;50.982;11.022;2023-08-12T04:54:57;22.50;78.40
28837;DHT22;50669;50.982;11.022;2023-08-12T04:57:23;22.60;78.50
28837;DHT22;50669;50.982;11.022;2023-08-12T04:59:49;22.50;78.40
28837;DHT22;50669;50.982;11.022;2023-08-12T05:02:17;22.60;78.50
28837;DHT22;50669;50.982;11.022;2023-08-12T05:04:49;22.50;78.50
28837;DHT22;50669;50.982;11.022;2023-08-12T05:07:15;22.50;78.40
28837;DHT22;50669;50.982;11.022;2023-08-12T05:09:41;22.50;78.50
28837;DHT22;50669;50.982;11.022;2023-08-12T05:12:10;22.50;78.50
28837;DHT22;50669;50.982;11.022;2023-08-12T05:14:39;22.50;78.50
28837;DHT22;50669;50.982;11.022;2023-08-12T05:17:05;22.50;78.50
28837;DHT22;50669;50.982;11.022;2023-08-12T05:19:35;22.50;78.50
28837;DHT22;50669;50.982;11.022;2023-08-12T05:22:01;22.50;78.50
28837;DHT22;50669;50.982;11.022;2023-08-12T05:24:27;22.50;78.50
28837;DHT22;50669;50.982;11.022;2023-08-12T05:26:53;22.50;78.50
28837;DHT22;50669;50.982;11.022;2023-08-12T05:29:20;22.50;78.40
28837;DHT22;50669;50.982;11.022;2023-08-12T05:31:46;22.50;78.50
28837;DHT22;50669;50.982;11.022;2023-08-12T05:34:14;22.50;78.50
28837;DHT22;50669;50.982;11.022;2023-08-12T05:36:39;22.50;78.60
28837;DHT22;50669;50.982;11.022;2023-08-12T05:39:05;22.50;78.50
28837;DHT22;50669;50.982;11.022;2023-08-12T05:41:34;22.50;78.60
28837;DHT22;50669;50.982;11.022;2023-08-12T05:44:02;22.50;78.50
28837;DHT22;50669;50.982;11.022;2023-08-12T05:46:30;22.50;78.50
28837;DHT22;50669;50.982;11.022;2023-08-12T05:48:55;22.50;78.60
28837;DHT22;50669;50.982;11.022;2023-08-12T05:51:23;22.50;78.60
28837;DHT22;50669;50.982;11.022;2023-08-12T05:53:49;22.50;78.60
28837;DHT22;50669;50.982;11.022;2023-08-12T05:56:15;22.50;78.60
28837;DHT22;50669;50.982;11.022;2023-08-12T05:58:45;22.50;78.60
28837;DHT22;50669;50.982;11.022;2023-08-12T06:01:13;22.50;79.30
28837;DHT22;50669;50.982;11.022;2023-08-12T06:03:38;22.50;78.60
28837;DHT22;50669;50.982;11.022;2023-08-12T06:06:05;22.50;78.50
28837;DHT22;50669;50.982;11.022;2023-08-12T06:08:31;22.50;78.50
28837;DHT22;50669;50.982;11.022;2023-08-12T06:10:57;22.50;78.60
28837;DHT22;50669;50.982;11.022;2023-08-12T06:13:25;22.50;78.60
28837;DHT22;50669;50.982;11.022;2023-08-12T06:15:50;22.50;78.60
28837;DHT22;50669;50.982;11.022;2023-08-12T06:18:19;22.50;78.60
28837;DHT22;50669;50.982;11.022;2023-08-12T06:20:44;22.50;78.60
28837;DHT22;50669;50.982;11.022;2023-08-12T06:23:10;22.50;78.60
28837;DHT22;50669;50.982;11.022;2023-08-12T06:25:38;22.50;78.60
28837;DHT22;50669;50.982;11.022;2023-08-12T06:28:04;22.50;79.30
28837;DHT22;50669;50.982;11.022;2023-08-12T06:30:33;22.50;78.60
28837;DHT22;50669;50.982;11.022;2023-08-12T06:32:59;22.50;78.60
28837;DHT22;50669;50.982;11.022;2023-08-12T06:35:25;22.50;78.60
28837;DHT22;50669;50.982;11.022;2023-08-12T06:37:50;22.50;78.60
28837;DHT22;50669;50.982;11.022;2023-08-12T06:40:16;22.50;78.60
28837;DHT22;50669;50.982;11.022;2023-08-12T06:42:42;22.50;78.60
28837;DHT22;50669;50.982;11.022;2023-08-12T06:45:08;22.50;78.60
28837;DHT22;50669;50.982;11.022;2023-08-12T06:47:34;22.50;78.60
28837;DHT22;50669;50.982;11.022;2023-08-12T06:50:00;22.50;78.60
28837;DHT22;50669;50.982;11.022;2023-08-12T06:52:25;22.50;78.60
28837;DHT22;50669;50.982;11.022;2023-08-12T06:54:51;22.50;78.60
28837;DHT22;50669;50.982;11.022;2023-08-12T06:57:17;22.50;78.60
28837;DHT22;50669;50.982;11.022;2023-08-12T06:59:43;22.50;78.50
28837;DHT22;50669;50.982;11.022;2023-08-12T07:02:08;22.50;78.60
28837;DHT22;50669;50.982;11.022;2023-08-12T07:04:34;22.50;78.60
28837;DHT22;50669;50.982;11.022;2023-08-12T07:06:59;22.50;78.70
28837;DHT22;50669;50.982;11.022;2023-08-12T07:09:25;22.50;78.70
28837;DHT22;50669;50.982;11.022;2023-08-12T07:11:51;22.50;78.60
28837;DHT22;50669;50.982;11.022;2023-08-12T07:14:17;22.50;78.60
28837;DHT22;50669;50.982;11.022;2023-08-12T07:16:42;22.50;78.60
28837;DHT22;50669;50.982;11.022;2023-08-12T07:19:08;22.50;78.60
28837;DHT22;50669;50.982;11.022;2023-08-12T07:21:34;22.50;78.60
28837;DHT22;50669;50.982;11.022;2023-08-12T07:24:00;22.50;78.60
28837;DHT22;50669;50.982;11.022;2023-08-12T07:26:28;22.50;78.60
28837;DHT22;50669;50.982;11.022;2023-08-12T07:28:56;22.50;78.70
28837;DHT22;50669;50.982;11.022;2023-08-12T07:31:24;22.50;78.60
28837;DHT22;50669;50.982;11.022;2023-08-12T07:33:50;22.60;78.70
28837;DHT22;50669;50.982;11.022;2023-08-12T07:36:17;22.50;78.60
28837;DHT22;50669;50.982;11.022;2023-08-12T07:38:43;22.50;78.60
28837;DHT22;50669;50.982;11.022;2023-08-12T07:41:11;22.60;78.70
28837;DHT22;50669;50.982;11.022;2023-08-12T07:43:36;22.50;78.60
28837;DHT22;50669;50.982;11.022;2023-08-12T07:46:02;22.50;78.60
28837;DHT22;50669;50.982;11.022;2023-08-12T07:48:32;22.50;78.60
28837;DHT22;50669;50.982;11.022;2023-08-12T07:50:59;22.50;78.60
28837;DHT22;50669;50.982;11.022;2023-08-12T07:53:25;22.50;78.60
28837;DHT22;50669;50.982;11.022;2023-08-12T07:55:51;22.50;78.60
28837;DHT22;50669;50.982;11.022;2023-08-12T07:58:19;22.50;78.70
28837;DHT22;50669;50.982;11.022;2023-08-12T08:00:45;22.60;78.70
28837;DHT22;50669;50.982;11.022;2023-08-12T08:03:11;22.50;78.60
28837;DHT22;50669;50.982;11.022;2023-08-12T08:05:40;22.60;78.70
28837;DHT22;50669;50.982;11.022;2023-08-12T08:08:06;22.50;78.70
28837;DHT22;50669;50.982;11.022;2023-08-12T08:10:32;22.60;78.70
28837;DHT22;50669;50.982;11.022;2023-08-12T08:12:57;22.60;78.60
28837;DHT22;50669;50.982;11.022;2023-08-12T08:15:23;22.50;78.70
28837;DHT22;50669;50.982;11.022;2023-08-12T08:17:49;22.60;78.70
28837;DHT22;50669;50.982;11.022;2023-08-12T08:20:14;22.60;78.70
28837;DHT22;50669;50.982;11.022;2023-08-12T08:22:40;22.60;78.70
28837;DHT22;50669;50.982;11.022;2023-08-12T08:25:08;22.50;78.60
28837;DHT22;50669;50.982;11.022;2023-08-12T08:27:34;22.50;78.60
28837;DHT22;50669;50.982;11.022;2023-08-12T08:29:59;22.50;78.60
28837;DHT22;50669;50.982;11.022;2023-08-12T08:32:25;22.60;78.70
28837;DHT22;50669;50.982;11.022;2023-08-12T08:34:51;22.60;78.70
28837;DHT22;50669;50.982;11.022;2023-08-12T08:37:19;22.60;78.70
28837;DHT22;50669;50.982;11.022;2023-08-12T08:39:46;22.60;78.70
28837;DHT22;50669;50.982;11.022;2023-08-12T08:42:12;22.60;78.70
28837;DHT22;50669;50.982;11.022;2023-08-12T08:44:41;22.60;78.70
28837;DHT22;50669;50.982;11.022;2023-08-12T08:47:08;22.60;78.60
28837;DHT22;50669;50.982;11.022;2023-08-12T08:49:35;22.60;78.70
28837;DHT22;50669;50.982;11.022;2023-08-12T08:52:01;22.60;78.70
28837;DHT22;50669;50.982;11.022;2023-08-12T08:54:30;22.50;78.60
28837;DHT22;50669;50.982;11.022;2023-08-12T08:56:58;22.60;78.70
28837;DHT22;50669;50.982;11.022;2023-08-12T08:59:24;22.60;78.70
28837;DHT22;50669;50.982;11.022;2023-08-12T09:01:49;22.60;78.70
28837;DHT22;50669;50.982;11.022;2023-08-12T09:04:17;22.60;78.70
28837;DHT22;50669;50.982;11.022;2023-08-12T09:06:44;22.60;78.60
28837;DHT22;50669;50.982;11.022;2023-08-12T09:09:13;22.60;78.60
28837;DHT22;50669;50.982;11.022;2023-08-12T09:11:40;22.60;78.70
28837;DHT22;50669;50.982;11.022;2023-08-12T09:14:08;22.60;79.40
28837;DHT22;50669;50.982;11.022;2023-08-12T09:16:34;22.60;78.60
28837;DHT22;50669;50.982;11.022;2023-08-12T09:19:00;22.60;78.70
28837;DHT22;50669;50.982;11.022;2023-08-12T09:21:28;22.60;78.60
28837;DHT22;50669;50.982;11.022;2023-08-12T09:23:55;22.60;78.60
28837;DHT22;50669;50.982;11.022;2023-08-12T09:26:25;22.70;78.60
28837;DHT22;50669;50.982;11.022;2023-08-12T09:28:53;22.60;78.60
28837;DHT22;50669;50.982;11.022;2023-08-12T09:31:26;22.60;78.60
28837;DHT22;50669;50.982;11.022;2023-08-12T09:33:57;22.60;78.50
28837;DHT22;50669;50.982;11.022;2023-08-12T09:36:23;22.60;78.50
28837;DHT22;50669;50.982;11.022;2023-08-12T09:38:49;22.60;78.40
28837;DHT22;50669;50.982;11.022;2023-08-12T09:41:15;22.60;78.50
28837;DHT22;50669;50.982;11.022;2023-08-12T09:43:41;22.70;78.60
28837;DHT22;50669;50.982;11.022;2023-08-12T09:46:13;22.70;78.60
28837;DHT22;50669;50.982;11.022;2023-08-12T09:48:41;22.70;78.50
28837;DHT22;50669;50.982;11.022;2023-08-12T09:51:10;22.70;78.60
28837;DHT22;50669;50.982;11.022;2023-08-12T09:53:36;22.70;78.60
28837;DHT22;50669;50.982;11.022;2023-08-12T09:56:11;22.70;78.60
28837;DHT22;50669;50.982;11.022;2023-08-12T09:58:37;22.70;78.60
28837;DHT22;50669;50.982;11.022;2023-08-12T10:01:06;22.70;78.50
28837;DHT22;50669;50.982;11.022;2023-08-12T10:03:34;22.70;78.50
28837;DHT22;50669;50.982;11.022;2023-08-12T10:06:00;22.70;78.50
28837;DHT22;50669;50.982;11.022;2023-08-12T10:08:28;22.70;78.50
28837;DHT22;50669;50.982;11.022;2023-08-12T10:10:55;22.70;78.50
28837;DHT22;50669;50.982;11.022;2023-08-12T10:13:24;22.70;78.50
28837;DHT22;50669;50.982;11.022;2023-08-12T10:15:50;22.70;78.50
28837;DHT22;50669;50.982;11.022;2023-08-12T10:18:18;22.70;78.50
28837;DHT22;50669;50.982;11.022;2023-08-12T10:20:44;22.70;78.50
28837;DHT22;50669;50.982;11.022;2023-08-12T10:23:15;22.70;78.50
28837;DHT22;50669;50.982;11.022;2023-08-12T10:25:41;22.70;78.50
28837;DHT22;50669;50.982;11.022;2023-08-12T10:28:08;22.70;78.40
28837;DHT22;50669;50.982;11.022;2023-08-12T10:30:34;22.70;78.40
28837;DHT22;50669;50.982;11.022;2023-08-12T10:33:00;22.70;78.40
28837;DHT22;50669;50.982;11.022;2023-08-12T10:35:46;22.70;78.40
28837;DHT22;50669;50.982;11.022;2023-08-12T10:38:19;22.70;78.40
28837;DHT22;50669;50.982;11.022;2023-08-12T10:40:46;22.70;78.40
28837;DHT22;50669;50.982;11.022;2023-08-12T10:43:15;22.70;78.40
28837;DHT22;50669;50.982;11.022;2023-08-12T10:45:48;22.70;78.40
28837;DHT22;50669;50.982;11.022;2023-08-12T10:48:21;22.80;78.50
28837;DHT22;50669;50.982;11.022;2023-08-12T10:50:55;22.70;78.50
28837;DHT22;50669;50.982;11.022;2023-08-12T10:53:28;22.80;78.50
28837;DHT22;50669;50.982;11.022;2023-08-12T10:56:01;22.70;78.40
28837;DHT22;50669;50.982;11.022;2023-08-12T10:58:49;22.80;78.50
28837;DHT22;50669;50.982;11.022;2023-08-12T11:01:17;22.80;78.40
28837;DHT22;50669;50.982;11.022;2023-08-12T11:03:43;22.80;78.50
28837;DHT22;50669;50.982;11.022;2023-08-12T11:06:13;22.80;78.40
28837;DHT22;50669;50.982;11.022;2023-08-12T11:08:56;22.80;78.40
28837;DHT22;50669;50.982;11.022;2023-08-12T11:11:25;22.80;78.40
28837;DHT22;50669;50.982;11.022;2023-08-12T11:14:00;22.80;78.40
28837;DHT22;50669;50.982;11.022;2023-08-12T11:16:37;22.80;78.40
28837;DHT22;50669;50.982;11.022;2023-08-12T11:19:03;22.80;78.40
28837;DHT22;50669;50.982;11.022;2023-08-12T11:21:33;22.80;78.40
28837;DHT22;50669;50.982;11.022;2023-08-12T11:24:01;22.80;78.30
28837;DHT22;50669;50.982;11.022;2023-08-12T11:26:30;22.80;78.40
28837;DHT22;50669;50.982;11.022;2023-08-12T11:28:56;22.80;78.20
28837;DHT22;50669;50.982;11.022;2023-08-12T11:31:24;22.80;78.40
28837;DHT22;50669;50.982;11.022;2023-08-12T11:33:52;22.80;78.30
28837;DHT22;50669;50.982;11.022;2023-08-12T11:36:22;22.80;78.30
28837;DHT22;50669;50.982;11.022;2023-08-12T11:38:50;22.80;78.30
28837;DHT22;50669;50.982;11.022;2023-08-12T11:41:22;22.80;78.20
28837;DHT22;50669;50.982;11.022;2023-08-12T11:43:50;22.80;78.20
28837;DHT22;50669;50.982;11.022;2023-08-12T11:46:18;22.80;78.30
28837;DHT22;50669;50.982;11.022;2023-08-12T11:48:44;22.80;78.20
28837;DHT22;50669;50.982;11.022;2023-08-12T11:51:13;22.90;78.30
28837;DHT22;50669;50.982;11.022;2023-08-12T11:53:42;22.90;79.00
28837;DHT22;50669;50.982;11.022;2023-08-12T11:56:08;22.90;78.30
28837;DHT22;50669;50.982;11.022;2023-08-12T11:58:37;22.90;78.30
28837;DHT22;50669;50.982;11.022;2023-08-12T12:01:02;22.90;78.30
28837;DHT22;50669;50.982;11.022;2023-08-12T12:03:30;22.90;78.20
28837;DHT22;50669;50.982;11.022;2023-08-12T12:05:56;22.90;78.20
28837;DHT22;50669;50.982;11.022;2023-08-12T12:08:24;22.90;78.20
28837;DHT22;50669;50.982;11.022;2023-08-12T12:10:52;22.90;78.20
28837;DHT22;50669;50.982;11.022;2023-08-12T12:13:20;22.90;78.20
28837;DHT22;50669;50.982;11.022;2023-08-12T12:15:45;22.90;78.20
28837;DHT22;50669;50.982;11.022;2023-08-12T12:18:12;22.90;78.20
28837;DHT22;50669;50.982;11.022;2023-08-12T12:21:03;23.00;78.20
28837;DHT22;50669;50.982;11.022;2023-08-12T12:23:31;23.00;78.20
28837;DHT22;50669;50.982;11.022;2023-08-12T12:26:01;23.00;78.20
28837;DHT22;50669;50.982;11.022;2023-08-12T12:28:27;23.00;78.20
28837;DHT22;50669;50.982;11.022;2023-08-12T12:30:53;23.00;78.10
28837;DHT22;50669;50.982;11.022;2023-08-12T12:33:21;23.00;78.00
28837;DHT22;50669;50.982;11.022;2023-08-12T12:35:49;23.00;78.00
28837;DHT22;50669;50.982;11.022;2023-08-12T12:38:15;23.00;78.00
28837;DHT22;50669;50.982;11.022;2023-08-12T12:40:41;23.00;78.00
28837;DHT22;50669;50.982;11.022;2023-08-12T12:43:06;23.00;78.00
28837;DHT22;50669;50.982;11.022;2023-08-12T12:45:34;23.00;78.00
28837;DHT22;50669;50.982;11.022;2023-08-12T12:48:00;23.00;78.00
28837;DHT22;50669;50.982;11.022;2023-08-12T12:50:28;23.00;78.00
28837;DHT22;50669;50.982;11.022;2023-08-12T12:52:56;23.00;78.00
28837;DHT22;50669;50.982;11.022;2023-08-12T12:55:22;23.00;78.80
28837;DHT22;50669;50.982;11.022;2023-08-12T12:57:47;23.00;78.00
28837;DHT22;50669;50.982;11.022;2023-08-12T13:00:13;23.00;78.10
28837;DHT22;50669;50.982;11.022;2023-08-12T13:02:41;23.00;78.10
28837;DHT22;50669;50.982;11.022;2023-08-12T13:05:07;23.00;78.10
28837;DHT22;50669;50.982;11.022;2023-08-12T13:07:34;23.00;78.10
28837;DHT22;50669;50.982;11.022;2023-08-12T13:09:59;23.00;78.10
28837;DHT22;50669;50.982;11.022;2023-08-12T13:12:25;23.00;78.20
28837;DHT22;50669;50.982;11.022;2023-08-12T13:14:50;23.00;78.10
28837;DHT22;50669;50.982;11.022;2023-08-12T13:17:18;23.00;78.20
28837;DHT22;50669;50.982;11.022;2023-08-12T13:19:44;23.00;78.10
28837;DHT22;50669;50.982;11.022;2023-08-12T13:22:10;23.00;78.90
28837;DHT22;50669;50.982;11.022;2023-08-12T13:24:36;23.00;78.10
28837;DHT22;50669;50.982;11.022;2023-08-12T13:27:01;23.00;78.20
28837;DHT22;50669;50.982;11.022;2023-08-12T13:29:29;23.00;78.20
28837;DHT22;50669;50.982;11.022;2023-08-12T13:31:57;23.00;78.20
28837;DHT22;50669;50.982;11.022;2023-08-12T13:34:25;23.00;78.10
28837;DHT22;50669;50.982;11.022;2023-08-12T13:36:51;23.00;78.20
28837;DHT22;50669;50.982;11.022;2023-08-12T13:39:16;23.00;78.20
28837;DHT22;50669;50.982;11.022;2023-08-12T13:41:43;23.00;78.20
28837;DHT22;50669;50.982;11.022;2023-08-12T13:44:11;23.00;78.20
28837;DHT22;50669;50.982;11.022;2023-08-12T13:46:39;23.00;78.10
28837;DHT22;50669;50.982;11.022;2023-08-12T13:49:07;23.00;79.00
28837;DHT22;50669;50.982;11.022;2023-08-12T13:51:35;23.10;78.20
28837;DHT22;50669;50.982;11.022;2023-08-12T13:54:01;23.00;78.20
28837;DHT22;50669;50.982;11.022;2023-08-12T13:56:31;23.00;78.20
28837;DHT22;50669;50.982;11.022;2023-08-12T13:58:56;23.00;78.20
28837;DHT22;50669;50.982;11.022;2023-08-12T14:01:22;23.00;78.20
28837;DHT22;50669;50.982;11.022;2023-08-12T14:03:48;23.00;78.20
28837;DHT22;50669;50.982;11.022;2023-08-12T14:06:16;23.00;78.20
28837;DHT22;50669;50.982;11.022;2023-08-12T14:08:44;23.00;78.20
28837;DHT22;50669;50.982;11.022;2023-08-12T14:11:10;23.00;78.90
28837;DHT22;50669;50.982;11.022;2023-08-12T14:13:35;23.00;78.20
28837;DHT22;50669;50.982;11.022;2023-08-12T14:16:01;23.10;78.20
28837;DHT22;50669;50.982;11.022;2023-08-12T14:18:29;23.10;78.20
28837;DHT22;50669;50.982;11.022;2023-08-12T14:20:57;23.00;78.20
28837;DHT22;50669;50.982;11.022;2023-08-12T14:23:22;23.00;78.10
28837;DHT22;50669;50.982;11.022;2023-08-12T14:25:48;23.10;78.20
28837;DHT22;50669;50.982;11.022;2023-08-12T14:28:14;23.00;78.20
28837;DHT22;50669;50.982;11.022;2023-08-12T14:30:39;23.00;78.20
28837;DHT22;50669;50.982;11.022;2023-08-12T14:33:07;23.10;78.90
28837;DHT22;50669;50.982;11.022;2023-08-12T14:35:36;23.00;78.20
28837;DHT22;50669;50.982;11.022;2023-08-12T14:38:02;23.10;78.20
28837;DHT22;50669;50.982;11.022;2023-08-12T14:40:28;23.00;78.20
28837;DHT22;50669;50.982;11.022;2023-08-12T14:42:55;23.00;78.20
28837;DHT22;50669;50.982;11.022;2023-08-12T14:45:23;23.00;78.20
28837;DHT22;50669;50.982;11.022;2023-08-12T14:47:49;23.10;78.30
28837;DHT22;50669;50.982;11.022;2023-08-12T14:50:17;23.00;78.20
28837;DHT22;50669;50.982;11.022;2023-08-12T14:52:45;23.00;78.20
28837;DHT22;50669;50.982;11.022;2023-08-12T14:55:12;23.10;78.30
28837;DHT22;50669;50.982;11.022;2023-08-12T14:57:38;23.00;78.20
28837;DHT22;50669;50.982;11.022;2023-08-12T15:00:04;23.10;78.30
28837;DHT22;50669;50.982;11.022;2023-08-12T15:02:32;23.10;78.20
28837;DHT22;50669;50.982;11.022;2023-08-12T15:05:02;23.10;78.20
28837;DHT22;50669;50.982;11.022;2023-08-12T15:07:31;23.10;78.20
28837;DHT22;50669;50.982;11.022;2023-08-12T15:09:56;23.10;78.20
28837;DHT22;50669;50.982;11.022;2023-08-12T15:12:25;23.00;78.20
28837;DHT22;50669;50.982;11.022;2023-08-12T15:14:53;23.10;78.30
28837;DHT22;50669;50.982;11.022;2023-08-12T15:17:18;23.10;78.20